createdAt,value
2023-05-17T00:00:33.664Z,6.90
2023-05-17T00:03:00.762Z,8.10
2023-05-17T00:05:27.927Z,7.70
2023-05-17T00:07:54.924Z,7.80
2023-05-17T00:10:21.878Z,10.80
2023-05-17T00:12:48.769Z,8.20
2023-05-17T00:15:15.737Z,12.00
2023-05-17T00:17:42.638Z,9.50
2023-05-17T00:20:09.675Z,8.30
2023-05-17T00:22:36.656Z,9.40
2023-05-17T00:25:04.267Z,7.40
2023-05-17T00:27:31.126Z,10.00
2023-05-17T00:29:58.066Z,8.40
2023-05-17T00:32:25.082Z,11.30
2023-05-17T00:34:52.017Z,7.00
2023-05-17T00:37:18.926Z,8.40
2023-05-17T00:39:45.836Z,10.30
2023-05-17T00:42:12.868Z,7.60
2023-05-17T00:44:39.761Z,10.40
2023-05-17T00:47:06.896Z,10.00
2023-05-17T00:49:33.901Z,11.30
2023-05-17T00:52:00.839Z,7.70
2023-05-17T00:54:27.867Z,10.20
2023-05-17T00:56:54.975Z,10.80
2023-05-17T00:59:22.685Z,8.70
2023-05-17T01:01:49.569Z,9.50
2023-05-17T01:04:16.654Z,9.30
2023-05-17T01:06:43.597Z,8.50
2023-05-17T01:09:10.485Z,8.50
2023-05-17T01:11:56.253Z,7.40
2023-05-17T01:14:27.779Z,8.20
2023-05-17T01:17:01.385Z,7.70
2023-05-17T01:19:53.919Z,6.80
2023-05-17T01:22:32.365Z,7.50
2023-05-17T01:24:59.295Z,8.80
2023-05-17T01:27:26.154Z,10.30
2023-05-17T01:29:53.095Z,10.00
2023-05-17T01:32:20.033Z,13.40
2023-05-17T01:34:46.972Z,8.90
2023-05-17T01:37:13.800Z,15.10
2023-05-17T01:39:41.592Z,11.90
2023-05-17T01:42:14.753Z,9.80
2023-05-17T01:44:55.574Z,11.80
2023-05-17T01:47:41.031Z,10.70
2023-05-17T01:50:08.092Z,8.20
2023-05-17T01:52:38.774Z,9.60
2023-05-17T01:55:13.125Z,8.90
2023-05-17T01:57:40.010Z,7.90
2023-05-17T02:00:08.770Z,7.50
2023-05-17T02:02:46.293Z,10.30
2023-05-17T02:05:13.542Z,7.40
2023-05-17T02:07:40.637Z,7.70
2023-05-17T02:10:08.123Z,8.10
2023-05-17T02:12:36.191Z,7.90
2023-05-17T02:15:03.276Z,10.80
2023-05-17T02:17:30.210Z,9.10
2023-05-17T02:19:57.130Z,7.50
2023-05-17T02:22:24.016Z,6.70
2023-05-17T02:24:50.886Z,9.90
2023-05-17T02:27:17.743Z,8.70
2023-05-17T02:29:44.604Z,8.00
2023-05-17T02:32:11.542Z,8.20
2023-05-17T02:34:38.472Z,11.40
2023-05-17T02:37:05.604Z,7.20
2023-05-17T02:39:33.717Z,8.90
2023-05-17T02:42:00.679Z,9.70
2023-05-17T02:44:27.528Z,6.30
2023-05-17T02:46:54.590Z,9.40
2023-05-17T02:49:21.514Z,7.10
2023-05-17T02:51:48.383Z,7.90
2023-05-17T02:54:15.290Z,9.40
2023-05-17T02:56:42.384Z,7.00
2023-05-17T02:59:09.527Z,6.70
2023-05-17T03:01:37.900Z,8.60
2023-05-17T03:04:05.078Z,9.00
2023-05-17T03:06:32.143Z,7.50
2023-05-17T03:08:59.123Z,7.50
2023-05-17T03:11:26.140Z,7.00
2023-05-17T03:13:54.449Z,8.10
2023-05-17T03:16:25.189Z,7.60
2023-05-17T03:18:52.444Z,7.50
2023-05-17T03:21:19.848Z,7.70
2023-05-17T03:36:48.681Z,7.00
2023-05-17T03:39:15.821Z,7.10
2023-05-17T03:41:43.126Z,7.60
2023-05-17T03:44:10.808Z,7.80
2023-05-17T03:46:37.798Z,9.00
2023-05-17T03:49:05.303Z,9.00
2023-05-17T03:51:33.569Z,7.30
2023-05-17T03:54:01.288Z,7.00
2023-05-17T03:56:29.701Z,11.60
2023-05-17T03:58:56.720Z,8.10
2023-05-17T04:01:23.744Z,7.80
2023-05-17T04:03:50.921Z,9.30
2023-05-17T04:06:18.614Z,6.10
2023-05-17T04:08:45.642Z,7.20
2023-05-17T04:11:15.473Z,7.40
2023-05-17T04:13:43.116Z,7.90
2023-05-17T04:16:10.288Z,7.50
2023-05-17T04:18:38.830Z,8.40
2023-05-17T04:21:06.099Z,6.80
2023-05-17T04:23:34.286Z,8.90
2023-05-17T04:26:01.660Z,9.40
2023-05-17T04:28:29.085Z,10.00
2023-05-17T04:30:56.193Z,8.40
2023-05-17T04:33:24.376Z,7.10
2023-05-17T04:35:51.759Z,7.80
2023-05-17T04:38:18.764Z,8.30
2023-05-17T04:40:45.709Z,8.10
2023-05-17T04:43:12.682Z,10.40
2023-05-17T04:45:41.167Z,8.20
2023-05-17T04:48:08.520Z,9.30
2023-05-17T04:50:35.857Z,8.30
2023-05-17T04:53:05.084Z,7.80
2023-05-17T04:55:33.390Z,6.30
2023-05-17T04:58:00.763Z,6.70
2023-05-17T05:00:28.217Z,8.10
2023-05-17T05:03:02.351Z,8.30
2023-05-17T05:05:29.468Z,8.30
2023-05-17T05:07:57.832Z,9.50
2023-05-17T05:10:24.944Z,9.00
2023-05-17T05:12:52.115Z,8.80
2023-05-17T05:15:19.368Z,7.50
2023-05-17T05:17:51.528Z,7.50
2023-05-17T05:20:19.298Z,8.60
2023-05-17T05:22:46.253Z,10.10
2023-05-17T05:25:13.779Z,7.90
2023-05-17T05:27:40.664Z,7.90
2023-05-17T05:30:08.759Z,7.80
2023-05-17T05:32:37.997Z,9.20
2023-05-17T05:35:05.790Z,8.40
2023-05-17T05:37:32.777Z,7.50
2023-05-17T05:40:00.000Z,9.90
2023-05-17T05:42:27.803Z,8.60
2023-05-17T05:44:54.794Z,9.20
2023-05-17T05:47:22.664Z,8.40
2023-05-17T05:49:49.539Z,9.00
2023-05-17T05:52:16.462Z,7.10
2023-05-17T05:54:44.160Z,7.80
2023-05-17T05:57:11.178Z,8.20
2023-05-17T05:59:38.175Z,7.00
2023-05-17T06:02:05.920Z,9.00
2023-05-17T06:04:43.943Z,10.00
2023-05-17T06:07:12.548Z,6.90
2023-05-17T06:09:39.401Z,14.00
2023-05-17T06:12:06.339Z,9.30
2023-05-17T06:14:33.258Z,8.30
2023-05-17T06:17:00.242Z,7.80
2023-05-17T06:19:27.263Z,8.40
2023-05-17T06:21:56.501Z,8.50
2023-05-17T06:24:23.416Z,9.30
2023-05-17T06:26:51.077Z,8.10
2023-05-17T06:29:18.167Z,8.50
2023-05-17T06:31:45.218Z,7.40
2023-05-17T06:34:13.488Z,9.40
2023-05-17T06:36:40.931Z,7.90
2023-05-17T06:39:08.720Z,7.30
2023-05-17T06:41:35.863Z,9.00
2023-05-17T06:44:02.809Z,9.90
2023-05-17T06:46:30.198Z,8.80
2023-05-17T06:48:58.534Z,9.90
2023-05-17T06:51:26.128Z,10.00
2023-05-17T06:53:54.127Z,8.30
2023-05-17T06:56:21.145Z,9.80
2023-05-17T06:58:48.066Z,7.70
2023-05-17T07:01:15.997Z,9.10
2023-05-17T07:03:43.488Z,7.40
2023-05-17T07:06:10.829Z,9.80
2023-05-17T07:08:37.794Z,9.00
2023-05-17T07:11:08.380Z,9.60
2023-05-17T07:13:35.366Z,8.20
2023-05-17T07:16:02.452Z,8.40
2023-05-17T07:18:29.612Z,11.70
2023-05-17T07:20:56.623Z,11.50
2023-05-17T07:23:23.666Z,9.90
2023-05-17T07:25:51.263Z,8.00
2023-05-17T07:28:18.144Z,7.60
2023-05-17T07:30:45.059Z,6.00
2023-05-17T07:33:12.645Z,8.10
2023-05-17T07:35:39.558Z,6.60
2023-05-17T07:38:06.381Z,8.30
2023-05-17T07:40:35.379Z,8.40
2023-05-17T07:43:02.289Z,7.00
2023-05-17T07:45:29.326Z,6.30
2023-05-17T07:47:56.876Z,5.60
2023-05-17T07:50:24.217Z,6.60
2023-05-17T07:52:51.094Z,8.00
2023-05-17T07:55:18.145Z,7.20
2023-05-17T07:57:45.409Z,7.20
2023-05-17T08:00:13.695Z,9.00
2023-05-17T08:02:41.298Z,7.00
2023-05-17T08:05:08.940Z,8.10
2023-05-17T08:07:35.868Z,11.60
2023-05-17T08:10:02.900Z,11.00
2023-05-17T08:12:29.779Z,8.80
2023-05-17T08:14:57.050Z,5.70
2023-05-17T08:17:24.055Z,6.80
2023-05-17T08:19:51.122Z,5.90
2023-05-17T08:22:18.095Z,6.70
2023-05-17T08:24:47.930Z,5.80
2023-05-17T08:27:15.052Z,6.50
2023-05-17T08:29:42.060Z,9.50
2023-05-17T08:32:08.981Z,7.40
2023-05-17T08:34:36.952Z,8.10
2023-05-17T08:37:04.057Z,11.20
2023-05-17T08:39:31.685Z,8.10
2023-05-17T08:41:59.875Z,6.60
2023-05-17T08:44:28.465Z,6.20
2023-05-17T08:46:55.397Z,6.20
2023-05-17T08:49:23.073Z,3.40
2023-05-17T08:51:50.221Z,4.70
2023-05-17T08:54:17.100Z,7.10
2023-05-17T08:56:44.147Z,5.50
2023-05-17T08:59:11.039Z,7.10
2023-05-17T09:01:40.082Z,12.80
2023-05-17T09:04:07.281Z,12.90
2023-05-17T09:06:34.185Z,4.80
2023-05-17T09:09:02.503Z,4.70
2023-05-17T09:11:31.082Z,5.90
2023-05-17T09:14:07.615Z,6.50
2023-05-17T09:16:36.418Z,5.40
2023-05-17T09:19:05.425Z,5.50
2023-05-17T09:21:32.855Z,4.20
2023-05-17T09:24:07.749Z,5.30
2023-05-17T09:26:46.012Z,5.40
2023-05-17T09:29:20.999Z,5.50
2023-05-17T09:31:48.010Z,5.10
2023-05-17T09:34:18.139Z,4.40
2023-05-17T09:36:45.096Z,3.90
2023-05-17T09:39:13.763Z,4.90
2023-05-17T09:41:45.629Z,4.30
2023-05-17T09:44:13.514Z,4.20
2023-05-17T09:46:48.276Z,4.00
2023-05-17T09:49:17.610Z,9.10
2023-05-17T09:51:48.587Z,4.30
2023-05-17T09:54:15.628Z,5.30
2023-05-17T09:56:43.270Z,4.30
2023-05-17T09:59:15.195Z,5.80
2023-05-17T10:01:43.977Z,4.90
2023-05-17T10:04:11.955Z,6.10
2023-05-17T10:06:49.751Z,5.70
2023-05-17T10:09:19.017Z,5.90
2023-05-17T10:11:46.895Z,6.60
2023-05-17T10:14:32.475Z,5.80
2023-05-17T10:16:59.712Z,5.50
2023-05-17T10:19:26.757Z,10.30
2023-05-17T10:21:56.535Z,5.20
2023-05-17T10:24:24.755Z,6.00
2023-05-17T10:26:54.941Z,6.00
2023-05-17T10:29:21.851Z,4.30
2023-05-17T10:31:50.331Z,5.30
2023-05-17T10:34:17.357Z,5.60
2023-05-17T10:36:44.365Z,6.50
2023-05-17T10:39:11.346Z,5.80
2023-05-17T10:41:43.267Z,5.50
2023-05-17T10:44:12.763Z,6.00
2023-05-17T10:46:39.848Z,5.80
2023-05-17T10:49:07.216Z,4.70
2023-05-17T10:51:35.182Z,5.80
2023-05-17T10:54:18.859Z,5.80
2023-05-17T10:56:52.382Z,5.00
2023-05-17T10:59:19.916Z,6.70
2023-05-17T11:02:06.427Z,6.30
2023-05-17T11:04:37.801Z,6.20
2023-05-17T11:07:17.423Z,7.10
2023-05-17T11:09:45.171Z,5.80
2023-05-17T11:12:13.008Z,7.10
2023-05-17T11:14:49.279Z,6.10
2023-05-17T11:17:20.625Z,5.90
2023-05-17T11:20:27.250Z,7.00
2023-05-17T11:23:02.615Z,5.60
2023-05-17T11:25:31.241Z,7.50
2023-05-17T11:27:58.370Z,6.50
2023-05-17T11:30:32.314Z,6.70
2023-05-17T11:33:07.017Z,5.80
2023-05-17T11:35:39.066Z,7.50
2023-05-17T11:38:22.351Z,7.10
2023-05-17T11:40:50.967Z,6.20
2023-05-17T11:43:23.069Z,6.30
2023-05-17T11:45:52.898Z,5.90
2023-05-17T11:48:22.233Z,6.90
2023-05-17T11:50:50.074Z,6.10
2023-05-17T11:53:17.035Z,7.00
2023-05-17T11:55:48.195Z,6.40
2023-05-17T11:58:16.302Z,7.20
2023-05-17T12:00:43.497Z,5.70
2023-05-17T12:03:27.395Z,6.50
2023-05-17T12:06:13.795Z,8.80
2023-05-17T12:08:45.417Z,7.00
2023-05-17T12:11:17.506Z,7.80
2023-05-17T12:13:46.913Z,13.90
2023-05-17T12:16:17.577Z,7.50
2023-05-17T12:18:49.775Z,6.80
2023-05-17T12:21:18.289Z,6.40
2023-05-17T12:23:47.852Z,8.20
2023-05-17T12:26:16.546Z,8.10
2023-05-17T12:28:47.393Z,5.90
2023-05-17T12:31:18.635Z,8.00
2023-05-17T12:33:47.956Z,8.00
2023-05-17T12:36:15.038Z,7.00
2023-05-17T12:38:42.646Z,6.10
2023-05-17T12:41:14.811Z,7.00
2023-05-17T12:43:43.624Z,8.20
2023-05-17T12:46:20.825Z,8.30
2023-05-17T12:48:49.495Z,5.10
2023-05-17T12:51:23.375Z,5.30
2023-05-17T12:53:54.908Z,10.40
2023-05-17T12:56:28.653Z,4.90
2023-05-17T12:59:14.194Z,4.30
2023-05-17T13:01:48.605Z,6.40
2023-05-17T13:04:17.247Z,4.20
2023-05-17T13:06:47.931Z,6.20
2023-05-17T13:09:16.086Z,6.80
2023-05-17T13:11:43.176Z,9.00
2023-05-17T13:14:12.577Z,7.70
2023-05-17T13:16:40.363Z,9.20
2023-05-17T13:19:13.991Z,6.60
2023-05-17T13:21:41.165Z,8.70
2023-05-17T13:24:09.488Z,9.90
2023-05-17T13:26:36.414Z,7.40
2023-05-17T13:29:03.531Z,7.80
2023-05-17T13:31:30.481Z,8.50
2023-05-17T13:33:57.469Z,12.10
2023-05-17T13:36:24.480Z,7.10
2023-05-17T13:38:51.320Z,8.30
2023-05-17T13:41:18.242Z,9.30
2023-05-17T13:43:45.082Z,9.10
2023-05-17T13:46:11.910Z,9.20
2023-05-17T13:48:40.460Z,9.10
2023-05-17T13:51:09.706Z,10.60
2023-05-17T13:53:38.709Z,7.90
2023-05-17T13:56:06.023Z,9.20
2023-05-17T13:58:33.030Z,8.30
2023-05-17T14:00:59.850Z,11.60
2023-05-17T14:03:26.997Z,9.40
2023-05-17T14:05:54.397Z,10.20
2023-05-17T14:08:21.356Z,7.90
2023-05-17T14:10:48.532Z,9.70
2023-05-17T14:13:15.641Z,7.80
2023-05-17T14:15:42.498Z,6.80
2023-05-17T14:18:09.829Z,6.00
2023-05-17T14:20:36.858Z,9.70
2023-05-17T14:23:03.804Z,8.10
2023-05-17T14:25:30.838Z,6.90
2023-05-17T14:27:57.872Z,8.30
2023-05-17T14:30:24.849Z,8.20
2023-05-17T14:32:51.869Z,7.30
2023-05-17T14:35:18.988Z,6.50
2023-05-17T14:37:45.963Z,8.00
2023-05-17T14:40:13.071Z,8.60
2023-05-17T14:42:40.137Z,7.80
2023-05-17T14:45:08.217Z,7.10
2023-05-17T14:47:36.926Z,8.20
2023-05-17T14:50:04.550Z,7.00
2023-05-17T14:52:31.614Z,6.10
2023-05-17T14:54:58.895Z,10.20
2023-05-17T14:57:26.080Z,7.00
2023-05-17T14:59:53.152Z,9.70
2023-05-17T15:02:20.298Z,7.90
2023-05-17T15:04:47.603Z,7.70
2023-05-17T15:07:14.626Z,7.20
2023-05-17T15:09:41.932Z,6.90
2023-05-17T15:12:14.019Z,9.90
2023-05-17T15:14:41.141Z,5.80
2023-05-17T15:17:08.247Z,8.00
2023-05-17T15:19:35.250Z,6.20
2023-05-17T15:22:02.317Z,9.40
2023-05-17T15:24:29.768Z,11.20
2023-05-17T15:26:56.906Z,6.40
2023-05-17T15:29:23.797Z,6.60
2023-05-17T15:31:50.713Z,8.70
2023-05-17T15:34:17.821Z,7.00
2023-05-17T15:36:44.899Z,7.30
2023-05-17T15:39:11.854Z,11.00
2023-05-17T15:46:36.730Z,8.20
2023-05-17T15:49:03.605Z,8.60
2023-05-17T15:51:31.024Z,11.20
2023-05-17T15:53:58.065Z,10.00
2023-05-17T15:56:25.040Z,8.00
2023-05-17T15:58:52.678Z,7.50
2023-05-17T16:01:19.585Z,6.40
2023-05-17T16:03:46.984Z,6.80
2023-05-17T16:06:14.622Z,7.20
2023-05-17T16:08:42.133Z,7.30
2023-05-17T16:11:10.034Z,7.40
2023-05-17T16:13:37.072Z,7.20
2023-05-17T16:16:04.098Z,7.10
2023-05-17T16:18:31.908Z,9.70
2023-05-17T16:21:03.168Z,9.50
2023-05-17T16:23:30.100Z,9.50
2023-05-17T16:25:57.175Z,6.20
2023-05-17T16:28:24.161Z,6.60
2023-05-17T16:30:51.839Z,8.60
2023-05-17T16:33:27.958Z,6.90
2023-05-17T16:36:00.939Z,7.10
2023-05-17T16:38:27.967Z,7.20
2023-05-17T16:40:54.879Z,7.60
2023-05-17T16:43:21.814Z,9.00
2023-05-17T16:45:50.077Z,9.60
2023-05-17T16:48:17.662Z,7.30
2023-05-17T16:50:44.757Z,9.20
2023-05-17T16:53:14.471Z,7.80
2023-05-17T16:55:42.316Z,7.40
2023-05-17T16:58:59.750Z,6.70
2023-05-17T17:01:29.770Z,8.10
2023-05-17T17:04:07.593Z,7.50
2023-05-17T17:06:34.784Z,7.00
2023-05-17T17:09:02.080Z,7.50
2023-05-17T17:11:29.099Z,7.10
2023-05-17T17:14:15.313Z,7.60
2023-05-17T17:16:42.451Z,7.70
2023-05-17T17:19:13.026Z,8.10
2023-05-17T17:21:42.376Z,7.80
2023-05-17T17:24:09.345Z,7.90
2023-05-17T17:26:36.396Z,8.00
2023-05-17T17:29:47.622Z,6.30
2023-05-17T17:32:14.572Z,7.30
2023-05-17T17:34:41.550Z,9.00
2023-05-17T17:37:08.632Z,9.00
2023-05-17T17:39:35.982Z,8.00
2023-05-17T17:42:03.041Z,8.20
2023-05-17T17:44:29.964Z,7.40
2023-05-17T17:46:56.901Z,10.30
2023-05-17T17:49:26.936Z,7.60
2023-05-17T17:51:53.998Z,9.20
2023-05-17T17:54:21.546Z,8.00
2023-05-17T17:57:14.098Z,8.30
2023-05-17T17:59:41.240Z,10.90
2023-05-17T18:02:08.112Z,10.20
2023-05-17T18:04:35.259Z,6.80
2023-05-17T18:07:02.918Z,8.40
2023-05-17T18:09:29.776Z,6.30
2023-05-17T18:11:57.305Z,9.60
2023-05-17T18:14:24.389Z,7.70
2023-05-17T18:16:51.651Z,8.80
2023-05-17T18:19:18.989Z,9.20
2023-05-17T18:21:46.415Z,14.00
2023-05-17T18:24:13.420Z,8.40
2023-05-17T18:26:40.577Z,7.90
2023-05-17T18:29:07.514Z,9.40
2023-05-17T18:31:34.516Z,8.10
2023-05-17T18:34:01.499Z,8.40
2023-05-17T18:36:28.575Z,10.10
2023-05-17T18:38:58.747Z,9.30
2023-05-17T18:41:26.237Z,9.80
2023-05-17T18:43:53.337Z,6.70
2023-05-17T18:46:20.292Z,11.40
2023-05-17T18:48:47.271Z,9.10
2023-05-17T18:51:15.875Z,8.10
2023-05-17T18:53:42.860Z,9.90
2023-05-17T18:56:09.766Z,7.00
2023-05-17T18:58:36.702Z,8.10
2023-05-17T19:01:03.794Z,7.90
2023-05-17T19:03:31.253Z,11.50
2023-05-17T19:05:58.567Z,10.40
2023-05-17T19:08:25.615Z,9.70
2023-05-17T19:10:52.535Z,10.30
2023-05-17T19:13:19.412Z,10.60
2023-05-17T19:15:46.639Z,9.60
2023-05-17T19:18:13.588Z,8.00
2023-05-17T19:20:40.535Z,12.80
2023-05-17T19:23:07.583Z,9.80
2023-05-17T19:25:34.706Z,11.50
2023-05-17T19:28:01.643Z,13.80
2023-05-17T19:30:32.555Z,11.30
2023-05-17T19:32:59.923Z,9.50
2023-05-17T19:35:26.779Z,9.00
2023-05-17T19:37:56.653Z,14.00
2023-05-17T19:40:24.321Z,9.40
2023-05-17T19:42:51.329Z,8.50
2023-05-17T19:45:18.260Z,10.40
2023-05-17T19:47:45.202Z,11.50
2023-05-17T19:50:12.219Z,9.30
2023-05-17T19:52:39.342Z,10.00
2023-05-17T19:55:06.541Z,11.20
2023-05-17T19:57:33.801Z,10.60
2023-05-17T20:00:00.878Z,11.80
2023-05-17T20:02:27.897Z,10.40
2023-05-17T20:04:54.833Z,11.40
2023-05-17T20:07:25.896Z,10.40
2023-05-17T20:09:53.512Z,12.40
2023-05-17T20:12:20.885Z,11.50
2023-05-17T20:14:47.809Z,10.10
2023-05-17T20:17:14.694Z,10.70
2023-05-17T20:19:41.566Z,8.90
2023-05-17T20:22:08.495Z,10.50
2023-05-17T20:24:35.358Z,10.30
2023-05-17T20:27:02.601Z,9.90
2023-05-17T20:29:29.564Z,12.50
2023-05-17T20:31:56.612Z,12.10
2023-05-17T20:34:24.635Z,11.90
2023-05-17T20:36:51.536Z,11.40
2023-05-17T20:39:19.710Z,9.00
2023-05-17T20:41:51.433Z,11.60
2023-05-17T20:44:45.341Z,14.10
2023-05-17T20:47:55.471Z,11.80
2023-05-17T20:50:47.405Z,10.20
2023-05-17T20:53:14.851Z,11.40
2023-05-17T20:55:44.858Z,11.00
2023-05-17T20:58:11.761Z,11.00
2023-05-17T21:00:38.621Z,10.20
2023-05-17T21:03:05.641Z,11.50
2023-05-17T21:05:36.175Z,15.20
2023-05-17T21:08:03.166Z,12.80
2023-05-17T21:10:30.398Z,12.30
2023-05-17T21:12:57.625Z,13.50
2023-05-17T21:15:25.192Z,11.80
2023-05-17T21:17:52.472Z,12.30
2023-05-17T21:20:20.029Z,10.00
2023-05-17T21:22:48.294Z,10.70
2023-05-17T21:25:15.210Z,13.00
2023-05-17T21:27:42.070Z,14.50
2023-05-17T21:30:09.293Z,15.00
2023-05-17T21:32:36.342Z,15.60
2023-05-17T21:35:03.362Z,13.10
2023-05-17T21:37:30.167Z,13.20
2023-05-17T21:39:57.076Z,9.70
2023-05-17T21:42:24.301Z,10.40
2023-05-17T21:44:51.202Z,11.10
2023-05-17T21:47:18.163Z,10.70
2023-05-17T21:49:45.046Z,9.90
2023-05-17T21:52:11.928Z,11.30
2023-05-17T21:54:39.287Z,13.10
2023-05-17T21:57:06.212Z,11.80
2023-05-17T21:59:33.328Z,12.20
2023-05-17T22:02:00.384Z,13.20
2023-05-17T22:04:27.347Z,12.20
2023-05-17T22:06:55.891Z,11.40
2023-05-17T22:09:23.172Z,16.00
2023-05-17T22:11:50.241Z,12.50
2023-05-17T22:14:17.309Z,15.80
2023-05-17T22:16:44.598Z,13.40
2023-05-17T22:19:11.612Z,12.60
2023-05-17T22:21:38.468Z,11.80
2023-05-17T22:24:05.661Z,14.10
2023-05-17T22:26:32.620Z,13.50
2023-05-17T22:28:59.519Z,12.70
2023-05-17T22:31:26.449Z,12.90
2023-05-17T22:33:54.029Z,16.20
2023-05-17T22:36:24.904Z,15.80
2023-05-17T22:38:51.935Z,17.20
2023-05-17T22:41:18.769Z,15.20
2023-05-17T22:43:45.879Z,13.40
2023-05-17T22:46:12.793Z,11.80
2023-05-17T22:48:40.589Z,13.00
2023-05-17T22:51:07.702Z,12.20
2023-05-17T22:53:34.663Z,12.20
2023-05-17T22:56:01.535Z,11.70
2023-05-17T22:58:28.406Z,11.50
2023-05-17T23:00:56.138Z,10.80
2023-05-17T23:03:23.038Z,14.00
2023-05-17T23:05:51.514Z,14.40
2023-05-17T23:08:18.377Z,12.10
2023-05-17T23:10:45.686Z,10.20
2023-05-17T23:13:12.910Z,12.60
2023-05-17T23:15:40.906Z,11.30
2023-05-17T23:18:08.136Z,11.50
2023-05-17T23:20:36.064Z,11.40
2023-05-17T23:23:03.109Z,12.20
2023-05-17T23:25:30.147Z,11.20
2023-05-17T23:28:00.113Z,10.50
2023-05-17T23:30:27.976Z,14.00
2023-05-17T23:32:55.453Z,11.00
2023-05-17T23:35:23.417Z,14.00
2023-05-17T23:37:50.406Z,10.60
2023-05-17T23:40:17.236Z,11.80
2023-05-17T23:42:44.184Z,13.30
2023-05-17T23:45:11.183Z,11.30
2023-05-17T23:47:40.810Z,10.70
2023-05-17T23:50:12.209Z,11.00
2023-05-17T23:52:39.469Z,11.60
2023-05-17T23:55:07.430Z,11.40
2023-05-17T23:57:35.365Z,10.70
